sensor_id;sensor_type;location;lat;lon;timestamp;P1;durP1;ratioP1;P2;durP2;ratioP2
14187;SDS011;7175;51.978;5.330;2023-03-04T00:00:06;19.57;;;18.27;;
14187;SDS011;7175;51.978;5.330;2023-03-04T00:02:35;19.03;;;17.73;;
14187;SDS011;7175;51.978;5.330;2023-03-04T00:05:04;19.17;;;17.87;;
14187;SDS011;7175;51.978;5.330;2023-03-04T00:07:35;19.10;;;17.80;;
14187;SDS011;7175;51.978;5.330;2023-03-04T00:10:03;18.83;;;17.53;;
14187;SDS011;7175;51.978;5.330;2023-03-04T00:12:32;19.53;;;18.17;;
14187;SDS011;7175;51.978;5.330;2023-03-04T00:15:00;18.80;;;17.50;;
14187;SDS011;7175;51.978;5.330;2023-03-04T00:17:28;19.07;;;17.77;;
14187;SDS011;7175;51.978;5.330;2023-03-04T00:19:57;19.10;;;17.77;;
14187;SDS011;7175;51.978;5.330;2023-03-04T00:22:25;20.47;;;18.70;;
14187;SDS011;7175;51.978;5.330;2023-03-04T00:24:54;19.50;;;18.10;;
14187;SDS011;7175;51.978;5.330;2023-03-04T00:27:22;21.60;;;20.10;;
14187;SDS011;7175;51.978;5.330;2023-03-04T00:29:51;19.17;;;17.77;;
14187;SDS011;7175;51.978;5.330;2023-03-04T00:32:19;19.23;;;17.83;;
14187;SDS011;7175;51.978;5.330;2023-03-04T00:34:47;19.40;;;18.00;;
14187;SDS011;7175;51.978;5.330;2023-03-04T00:37:15;19.40;;;18.00;;
14187;SDS011;7175;51.978;5.330;2023-03-04T00:39:43;19.03;;;17.73;;
14187;SDS011;7175;51.978;5.330;2023-03-04T00:42:13;18.70;;;17.40;;
14187;SDS011;7175;51.978;5.330;2023-03-04T00:44:41;18.87;;;17.57;;
14187;SDS011;7175;51.978;5.330;2023-03-04T00:47:09;18.70;;;17.40;;
14187;SDS011;7175;51.978;5.330;2023-03-04T00:49:37;19.20;;;17.90;;
14187;SDS011;7175;51.978;5.330;2023-03-04T00:52:05;19.17;;;17.87;;
14187;SDS011;7175;51.978;5.330;2023-03-04T00:54:33;18.70;;;17.40;;
14187;SDS011;7175;51.978;5.330;2023-03-04T00:57:01;18.87;;;17.57;;
14187;SDS011;7175;51.978;5.330;2023-03-04T00:59:31;19.03;;;17.73;;
14187;SDS011;7175;51.978;5.330;2023-03-04T01:01:59;18.50;;;17.20;;
14187;SDS011;7175;51.978;5.330;2023-03-04T01:04:27;29.37;;;18.37;;
14187;SDS011;7175;51.978;5.330;2023-03-04T01:06:56;19.10;;;17.80;;
14187;SDS011;7175;51.978;5.330;2023-03-04T01:09:24;18.50;;;17.20;;
14187;SDS011;7175;51.978;5.330;2023-03-04T01:11:52;18.63;;;17.33;;
14187;SDS011;7175;51.978;5.330;2023-03-04T01:14:20;18.77;;;17.47;;
14187;SDS011;7175;51.978;5.330;2023-03-04T01:16:50;19.20;;;17.90;;
14187;SDS011;7175;51.978;5.330;2023-03-04T01:19:18;18.80;;;17.50;;
14187;SDS011;7175;51.978;5.330;2023-03-04T01:21:47;18.57;;;17.27;;
14187;SDS011;7175;51.978;5.330;2023-03-04T01:24:15;18.97;;;17.67;;
14187;SDS011;7175;51.978;5.330;2023-03-04T01:26:43;20.10;;;18.60;;
14187;SDS011;7175;51.978;5.330;2023-03-04T01:29:11;18.70;;;17.40;;
14187;SDS011;7175;51.978;5.330;2023-03-04T01:31:39;19.80;;;18.40;;
14187;SDS011;7175;51.978;5.330;2023-03-04T01:34:09;20.90;;;19.40;;
14187;SDS011;7175;51.978;5.330;2023-03-04T01:36:37;19.30;;;18.00;;
14187;SDS011;7175;51.978;5.330;2023-03-04T01:39:05;20.47;;;18.97;;
14187;SDS011;7175;51.978;5.330;2023-03-04T01:41:33;19.20;;;17.90;;
14187;SDS011;7175;51.978;5.330;2023-03-04T01:44:01;19.00;;;17.70;;
14187;SDS011;7175;51.978;5.330;2023-03-04T01:46:29;19.10;;;17.80;;
14187;SDS011;7175;51.978;5.330;2023-03-04T01:48:58;19.40;;;18.10;;
14187;SDS011;7175;51.978;5.330;2023-03-04T01:51:28;19.60;;;18.30;;
14187;SDS011;7175;51.978;5.330;2023-03-04T01:53:56;19.43;;;18.13;;
14187;SDS011;7175;51.978;5.330;2023-03-04T01:56:25;19.10;;;17.80;;
14187;SDS011;7175;51.978;5.330;2023-03-04T01:59:05;18.93;;;17.63;;
14187;SDS011;7175;51.978;5.330;2023-03-04T02:01:34;18.80;;;17.50;;
14187;SDS011;7175;51.978;5.330;2023-03-04T02:04:03;19.03;;;17.73;;
14187;SDS011;7175;51.978;5.330;2023-03-04T02:06:34;18.90;;;17.60;;
14187;SDS011;7175;51.978;5.330;2023-03-04T02:09:03;18.77;;;17.47;;
14187;SDS011;7175;51.978;5.330;2023-03-04T02:11:32;18.77;;;17.47;;
14187;SDS011;7175;51.978;5.330;2023-03-04T02:14:02;18.60;;;17.30;;
14187;SDS011;7175;51.978;5.330;2023-03-04T02:16:31;19.17;;;17.87;;
14187;SDS011;7175;51.978;5.330;2023-03-04T02:18:59;19.20;;;17.90;;
14187;SDS011;7175;51.978;5.330;2023-03-04T02:21:28;19.23;;;17.93;;
14187;SDS011;7175;51.978;5.330;2023-03-04T02:24:04;19.37;;;17.97;;
14187;SDS011;7175;51.978;5.330;2023-03-04T02:26:38;19.50;;;18.10;;
14187;SDS011;7175;51.978;5.330;2023-03-04T02:29:09;20.10;;;18.70;;
14187;SDS011;7175;51.978;5.330;2023-03-04T02:31:39;19.37;;;17.97;;
14187;SDS011;7175;51.978;5.330;2023-03-04T02:34:10;19.60;;;18.20;;
14187;SDS011;7175;51.978;5.330;2023-03-04T02:36:41;19.17;;;17.83;;
14187;SDS011;7175;51.978;5.330;2023-03-04T02:39:11;19.50;;;18.10;;
14187;SDS011;7175;51.978;5.330;2023-03-04T02:41:50;19.37;;;17.97;;
14187;SDS011;7175;51.978;5.330;2023-03-04T02:44:20;19.13;;;17.83;;
14187;SDS011;7175;51.978;5.330;2023-03-04T02:46:49;18.83;;;17.53;;
14187;SDS011;7175;51.978;5.330;2023-03-04T02:49:18;19.17;;;17.87;;
14187;SDS011;7175;51.978;5.330;2023-03-04T02:51:49;19.30;;;18.00;;
14187;SDS011;7175;51.978;5.330;2023-03-04T02:54:19;19.23;;;17.93;;
14187;SDS011;7175;51.978;5.330;2023-03-04T02:56:52;19.07;;;17.77;;
14187;SDS011;7175;51.978;5.330;2023-03-04T02:59:21;19.27;;;17.97;;
14187;SDS011;7175;51.978;5.330;2023-03-04T03:01:50;19.20;;;17.90;;
14187;SDS011;7175;51.978;5.330;2023-03-04T03:04:19;19.10;;;17.80;;
14187;SDS011;7175;51.978;5.330;2023-03-04T03:06:49;19.23;;;17.93;;
14187;SDS011;7175;51.978;5.330;2023-03-04T03:09:17;19.07;;;17.77;;
14187;SDS011;7175;51.978;5.330;2023-03-04T03:11:46;18.63;;;17.33;;
14187;SDS011;7175;51.978;5.330;2023-03-04T03:14:15;18.73;;;17.43;;
14187;SDS011;7175;51.978;5.330;2023-03-04T03:16:43;18.97;;;17.67;;
14187;SDS011;7175;51.978;5.330;2023-03-04T03:19:11;19.17;;;17.87;;
14187;SDS011;7175;51.978;5.330;2023-03-04T03:21:39;19.40;;;18.10;;
14187;SDS011;7175;51.978;5.330;2023-03-04T03:24:07;19.20;;;17.90;;
14187;SDS011;7175;51.978;5.330;2023-03-04T03:26:35;19.30;;;18.00;;
14187;SDS011;7175;51.978;5.330;2023-03-04T03:29:05;19.27;;;17.97;;
14187;SDS011;7175;51.978;5.330;2023-03-04T03:31:34;19.13;;;17.83;;
14187;SDS011;7175;51.978;5.330;2023-03-04T03:34:02;19.47;;;18.17;;
14187;SDS011;7175;51.978;5.330;2023-03-04T03:36:31;19.27;;;17.97;;
14187;SDS011;7175;51.978;5.330;2023-03-04T03:38:59;19.50;;;18.20;;
14187;SDS011;7175;51.978;5.330;2023-03-04T03:41:27;18.93;;;17.63;;
14187;SDS011;7175;51.978;5.330;2023-03-04T03:43:55;18.90;;;17.60;;
14187;SDS011;7175;51.978;5.330;2023-03-04T03:46:23;18.90;;;17.60;;
14187;SDS011;7175;51.978;5.330;2023-03-04T03:48:52;18.80;;;17.50;;
14187;SDS011;7175;51.978;5.330;2023-03-04T03:51:20;18.93;;;17.63;;
14187;SDS011;7175;51.978;5.330;2023-03-04T03:53:48;18.90;;;17.60;;
14187;SDS011;7175;51.978;5.330;2023-03-04T03:56:17;19.30;;;18.00;;
14187;SDS011;7175;51.978;5.330;2023-03-04T03:58:45;19.00;;;17.70;;
14187;SDS011;7175;51.978;5.330;2023-03-04T04:01:13;19.13;;;17.83;;
14187;SDS011;7175;51.978;5.330;2023-03-04T04:03:41;18.80;;;17.50;;
14187;SDS011;7175;51.978;5.330;2023-03-04T04:06:10;19.20;;;17.90;;
14187;SDS011;7175;51.978;5.330;2023-03-04T04:08:39;21.97;;;20.13;;
14187;SDS011;7175;51.978;5.330;2023-03-04T04:11:07;18.63;;;17.33;;
14187;SDS011;7175;51.978;5.330;2023-03-04T04:13:36;18.47;;;17.17;;
14187;SDS011;7175;51.978;5.330;2023-03-04T04:16:05;19.07;;;17.77;;
14187;SDS011;7175;51.978;5.330;2023-03-04T04:18:34;18.73;;;17.43;;
14187;SDS011;7175;51.978;5.330;2023-03-04T04:21:02;19.07;;;17.77;;
14187;SDS011;7175;51.978;5.330;2023-03-04T04:23:32;18.90;;;17.60;;
14187;SDS011;7175;51.978;5.330;2023-03-04T04:26:00;19.10;;;17.80;;
14187;SDS011;7175;51.978;5.330;2023-03-04T04:28:29;19.27;;;17.97;;
14187;SDS011;7175;51.978;5.330;2023-03-04T04:30:57;20.00;;;18.60;;
14187;SDS011;7175;51.978;5.330;2023-03-04T04:33:25;19.00;;;17.70;;
14187;SDS011;7175;51.978;5.330;2023-03-04T04:35:53;19.57;;;18.17;;
14187;SDS011;7175;51.978;5.330;2023-03-04T04:38:21;19.57;;;18.17;;
14187;SDS011;7175;51.978;5.330;2023-03-04T04:40:51;19.33;;;17.93;;
14187;SDS011;7175;51.978;5.330;2023-03-04T04:43:19;19.67;;;18.27;;
14187;SDS011;7175;51.978;5.330;2023-03-04T04:45:47;19.57;;;18.17;;
14187;SDS011;7175;51.978;5.330;2023-03-04T04:48:15;22.87;;;18.73;;
14187;SDS011;7175;51.978;5.330;2023-03-04T04:50:43;19.30;;;18.00;;
14187;SDS011;7175;51.978;5.330;2023-03-04T04:53:12;18.97;;;17.67;;
14187;SDS011;7175;51.978;5.330;2023-03-04T04:55:40;19.40;;;18.10;;
14187;SDS011;7175;51.978;5.330;2023-03-04T04:58:10;19.50;;;18.20;;
14187;SDS011;7175;51.978;5.330;2023-03-04T05:00:38;19.30;;;18.00;;
14187;SDS011;7175;51.978;5.330;2023-03-04T05:03:06;19.27;;;17.97;;
14187;SDS011;7175;51.978;5.330;2023-03-04T05:05:34;19.47;;;18.17;;
14187;SDS011;7175;51.978;5.330;2023-03-04T05:08:02;19.53;;;18.23;;
14187;SDS011;7175;51.978;5.330;2023-03-04T05:10:30;19.63;;;18.33;;
14187;SDS011;7175;51.978;5.330;2023-03-04T05:12:59;19.37;;;18.07;;
14187;SDS011;7175;51.978;5.330;2023-03-04T05:15:28;19.40;;;18.10;;
14187;SDS011;7175;51.978;5.330;2023-03-04T05:17:56;19.77;;;18.37;;
14187;SDS011;7175;51.978;5.330;2023-03-04T05:20:24;19.97;;;18.57;;
14187;SDS011;7175;51.978;5.330;2023-03-04T05:22:53;20.07;;;18.67;;
14187;SDS011;7175;51.978;5.330;2023-03-04T05:25:21;20.10;;;18.70;;
14187;SDS011;7175;51.978;5.330;2023-03-04T05:27:49;19.73;;;18.43;;
14187;SDS011;7175;51.978;5.330;2023-03-04T05:30:17;20.10;;;18.70;;
14187;SDS011;7175;51.978;5.330;2023-03-04T05:32:47;19.67;;;18.27;;
14187;SDS011;7175;51.978;5.330;2023-03-04T05:35:15;19.70;;;18.30;;
14187;SDS011;7175;51.978;5.330;2023-03-04T05:37:43;19.73;;;18.33;;
14187;SDS011;7175;51.978;5.330;2023-03-04T05:40:12;19.07;;;17.77;;
14187;SDS011;7175;51.978;5.330;2023-03-04T05:42:40;19.47;;;18.07;;
14187;SDS011;7175;51.978;5.330;2023-03-04T05:45:08;19.40;;;18.10;;
14187;SDS011;7175;51.978;5.330;2023-03-04T05:47:37;19.60;;;18.20;;
14187;SDS011;7175;51.978;5.330;2023-03-04T05:50:07;19.40;;;18.10;;
14187;SDS011;7175;51.978;5.330;2023-03-04T05:52:36;19.90;;;18.50;;
14187;SDS011;7175;51.978;5.330;2023-03-04T05:55:05;21.67;;;20.00;;
14187;SDS011;7175;51.978;5.330;2023-03-04T05:57:33;20.23;;;18.83;;
14187;SDS011;7175;51.978;5.330;2023-03-04T06:00:02;19.90;;;18.50;;
14187;SDS011;7175;51.978;5.330;2023-03-04T06:02:33;19.67;;;18.30;;
14187;SDS011;7175;51.978;5.330;2023-03-04T06:05:01;20.23;;;18.83;;
14187;SDS011;7175;51.978;5.330;2023-03-04T06:07:31;21.33;;;19.93;;
14187;SDS011;7175;51.978;5.330;2023-03-04T06:09:59;20.13;;;18.73;;
14187;SDS011;7175;51.978;5.330;2023-03-04T06:12:27;19.90;;;18.50;;
14187;SDS011;7175;51.978;5.330;2023-03-04T06:14:55;19.90;;;18.50;;
14187;SDS011;7175;51.978;5.330;2023-03-04T06:17:23;19.97;;;18.57;;
14187;SDS011;7175;51.978;5.330;2023-03-04T06:19:51;19.47;;;18.07;;
14187;SDS011;7175;51.978;5.330;2023-03-04T06:22:20;21.07;;;19.57;;
14187;SDS011;7175;51.978;5.330;2023-03-04T06:24:49;20.50;;;19.00;;
14187;SDS011;7175;51.978;5.330;2023-03-04T06:27:17;21.37;;;19.77;;
14187;SDS011;7175;51.978;5.330;2023-03-04T06:29:45;24.23;;;21.47;;
14187;SDS011;7175;51.978;5.330;2023-03-04T06:32:13;21.30;;;19.70;;
14187;SDS011;7175;51.978;5.330;2023-03-04T06:34:41;21.27;;;19.67;;
14187;SDS011;7175;51.978;5.330;2023-03-04T06:37:09;20.53;;;19.03;;
14187;SDS011;7175;51.978;5.330;2023-03-04T06:39:38;21.00;;;19.50;;
14187;SDS011;7175;51.978;5.330;2023-03-04T06:42:07;21.10;;;19.60;;
14187;SDS011;7175;51.978;5.330;2023-03-04T06:44:35;20.83;;;19.33;;
14187;SDS011;7175;51.978;5.330;2023-03-04T06:47:03;20.87;;;19.37;;
14187;SDS011;7175;51.978;5.330;2023-03-04T06:49:31;20.83;;;19.33;;
14187;SDS011;7175;51.978;5.330;2023-03-04T06:51:59;21.00;;;19.40;;
14187;SDS011;7175;51.978;5.330;2023-03-04T06:54:27;21.27;;;19.67;;
14187;SDS011;7175;51.978;5.330;2023-03-04T06:56:56;20.50;;;18.90;;
14187;SDS011;7175;51.978;5.330;2023-03-04T06:59:25;21.50;;;19.90;;
14187;SDS011;7175;51.978;5.330;2023-03-04T07:01:53;22.50;;;20.80;;
14187;SDS011;7175;51.978;5.330;2023-03-04T07:04:21;21.13;;;19.53;;
14187;SDS011;7175;51.978;5.330;2023-03-04T07:06:50;21.27;;;19.67;;
14187;SDS011;7175;51.978;5.330;2023-03-04T07:09:18;21.10;;;19.50;;
14187;SDS011;7175;51.978;5.330;2023-03-04T07:11:46;22.77;;;20.60;;
14187;SDS011;7175;51.978;5.330;2023-03-04T07:14:14;21.83;;;20.20;;
14187;SDS011;7175;51.978;5.330;2023-03-04T07:16:44;21.80;;;20.10;;
14187;SDS011;7175;51.978;5.330;2023-03-04T07:19:12;22.33;;;20.63;;
14187;SDS011;7175;51.978;5.330;2023-03-04T07:21:40;22.13;;;20.43;;
14187;SDS011;7175;51.978;5.330;2023-03-04T07:24:08;22.03;;;20.33;;
14187;SDS011;7175;51.978;5.330;2023-03-04T07:26:36;21.70;;;20.00;;
14187;SDS011;7175;51.978;5.330;2023-03-04T07:29:05;22.10;;;20.50;;
14187;SDS011;7175;51.978;5.330;2023-03-04T07:31:33;22.27;;;20.67;;
14187;SDS011;7175;51.978;5.330;2023-03-04T07:34:04;21.70;;;20.10;;
14187;SDS011;7175;51.978;5.330;2023-03-04T07:36:34;21.43;;;19.83;;
14187;SDS011;7175;51.978;5.330;2023-03-04T07:39:04;21.03;;;19.43;;
14187;SDS011;7175;51.978;5.330;2023-03-04T07:41:32;22.67;;;20.93;;
14187;SDS011;7175;51.978;5.330;2023-03-04T07:44:02;21.30;;;19.70;;
14187;SDS011;7175;51.978;5.330;2023-03-04T07:46:31;21.53;;;19.93;;
14187;SDS011;7175;51.978;5.330;2023-03-04T07:48:59;21.90;;;20.20;;
14187;SDS011;7175;51.978;5.330;2023-03-04T07:51:28;22.10;;;20.40;;
14187;SDS011;7175;51.978;5.330;2023-03-04T07:53:58;22.27;;;20.57;;
14187;SDS011;7175;51.978;5.330;2023-03-04T07:56:28;22.23;;;20.53;;
14187;SDS011;7175;51.978;5.330;2023-03-04T07:58:57;21.73;;;20.03;;
14187;SDS011;7175;51.978;5.330;2023-03-04T08:01:27;21.33;;;19.73;;
14187;SDS011;7175;51.978;5.330;2023-03-04T08:03:56;21.33;;;19.73;;
14187;SDS011;7175;51.978;5.330;2023-03-04T08:06:25;21.00;;;19.40;;
14187;SDS011;7175;51.978;5.330;2023-03-04T08:08:58;20.73;;;19.13;;
14187;SDS011;7175;51.978;5.330;2023-03-04T08:11:28;21.47;;;19.87;;
14187;SDS011;7175;51.978;5.330;2023-03-04T08:13:57;21.10;;;19.50;;
14187;SDS011;7175;51.978;5.330;2023-03-04T08:16:25;20.87;;;19.27;;
14187;SDS011;7175;51.978;5.330;2023-03-04T08:18:55;21.20;;;19.60;;
14187;SDS011;7175;51.978;5.330;2023-03-04T08:21:24;21.07;;;19.47;;
14187;SDS011;7175;51.978;5.330;2023-03-04T08:23:53;20.67;;;19.07;;
14187;SDS011;7175;51.978;5.330;2023-03-04T08:26:23;20.40;;;18.80;;
14187;SDS011;7175;51.978;5.330;2023-03-04T08:28:53;20.73;;;19.13;;
14187;SDS011;7175;51.978;5.330;2023-03-04T08:31:22;21.30;;;19.50;;
14187;SDS011;7175;51.978;5.330;2023-03-04T08:33:51;20.80;;;19.20;;
14187;SDS011;7175;51.978;5.330;2023-03-04T08:36:19;20.03;;;18.43;;
14187;SDS011;7175;51.978;5.330;2023-03-04T08:38:47;19.93;;;18.43;;
14187;SDS011;7175;51.978;5.330;2023-03-04T08:41:15;19.83;;;18.33;;
14187;SDS011;7175;51.978;5.330;2023-03-04T08:43:45;20.00;;;18.40;;
14187;SDS011;7175;51.978;5.330;2023-03-04T08:46:13;20.03;;;18.43;;
14187;SDS011;7175;51.978;5.330;2023-03-04T08:48:41;20.23;;;18.63;;
14187;SDS011;7175;51.978;5.330;2023-03-04T08:51:09;20.33;;;18.73;;
14187;SDS011;7175;51.978;5.330;2023-03-04T08:53:39;20.00;;;18.40;;
14187;SDS011;7175;51.978;5.330;2023-03-04T08:56:08;19.53;;;18.03;;
14187;SDS011;7175;51.978;5.330;2023-03-04T08:58:37;19.83;;;18.33;;
14187;SDS011;7175;51.978;5.330;2023-03-04T09:01:08;19.47;;;17.97;;
14187;SDS011;7175;51.978;5.330;2023-03-04T09:03:37;19.57;;;17.97;;
14187;SDS011;7175;51.978;5.330;2023-03-04T09:06:06;18.80;;;17.30;;
14187;SDS011;7175;51.978;5.330;2023-03-04T09:08:35;19.13;;;17.63;;
14187;SDS011;7175;51.978;5.330;2023-03-04T09:11:03;18.63;;;17.23;;
14187;SDS011;7175;51.978;5.330;2023-03-04T09:13:32;19.10;;;17.70;;
14187;SDS011;7175;51.978;5.330;2023-03-04T09:16:00;19.17;;;17.70;;
14187;SDS011;7175;51.978;5.330;2023-03-04T09:18:30;19.00;;;17.60;;
14187;SDS011;7175;51.978;5.330;2023-03-04T09:20:58;18.87;;;17.47;;
14187;SDS011;7175;51.978;5.330;2023-03-04T09:23:26;19.40;;;17.97;;
14187;SDS011;7175;51.978;5.330;2023-03-04T09:25:54;19.40;;;17.90;;
14187;SDS011;7175;51.978;5.330;2023-03-04T09:28:22;19.70;;;18.20;;
14187;SDS011;7175;51.978;5.330;2023-03-04T09:30:50;19.40;;;17.90;;
14187;SDS011;7175;51.978;5.330;2023-03-04T09:33:18;19.33;;;17.83;;
14187;SDS011;7175;51.978;5.330;2023-03-04T09:35:48;20.53;;;18.93;;
14187;SDS011;7175;51.978;5.330;2023-03-04T09:38:16;20.03;;;18.43;;
14187;SDS011;7175;51.978;5.330;2023-03-04T09:40:44;20.50;;;18.80;;
14187;SDS011;7175;51.978;5.330;2023-03-04T09:43:16;20.90;;;19.20;;
14187;SDS011;7175;51.978;5.330;2023-03-04T09:45:47;21.67;;;19.87;;
14187;SDS011;7175;51.978;5.330;2023-03-04T09:48:19;21.30;;;19.53;;
14187;SDS011;7175;51.978;5.330;2023-03-04T09:50:55;21.77;;;19.97;;
14187;SDS011;7175;51.978;5.330;2023-03-04T09:53:34;22.97;;;21.07;;
14187;SDS011;7175;51.978;5.330;2023-03-04T09:56:09;22.60;;;20.70;;
14187;SDS011;7175;51.978;5.330;2023-03-04T09:58:41;23.27;;;21.37;;
14187;SDS011;7175;51.978;5.330;2023-03-04T10:01:16;23.50;;;21.60;;
14187;SDS011;7175;51.978;5.330;2023-03-04T10:03:49;23.33;;;21.43;;
14187;SDS011;7175;51.978;5.330;2023-03-04T10:06:22;24.40;;;22.50;;
14187;SDS011;7175;51.978;5.330;2023-03-04T10:08:51;24.60;;;22.70;;
14187;SDS011;7175;51.978;5.330;2023-03-04T10:11:24;25.43;;;23.43;;
14187;SDS011;7175;51.978;5.330;2023-03-04T10:13:56;25.27;;;23.27;;
14187;SDS011;7175;51.978;5.330;2023-03-04T10:16:32;24.37;;;22.47;;
14187;SDS011;7175;51.978;5.330;2023-03-04T10:19:10;25.57;;;23.57;;
14187;SDS011;7175;51.978;5.330;2023-03-04T10:21:50;24.67;;;22.73;;
14187;SDS011;7175;51.978;5.330;2023-03-04T10:24:19;24.80;;;22.80;;
14187;SDS011;7175;51.978;5.330;2023-03-04T10:26:51;25.20;;;23.20;;
14187;SDS011;7175;51.978;5.330;2023-03-04T10:29:21;23.87;;;21.97;;
14187;SDS011;7175;51.978;5.330;2023-03-04T10:31:50;22.80;;;21.00;;
14187;SDS011;7175;51.978;5.330;2023-03-04T10:34:21;21.13;;;19.43;;
14187;SDS011;7175;51.978;5.330;2023-03-04T10:36:54;21.47;;;19.77;;
14187;SDS011;7175;51.978;5.330;2023-03-04T10:39:26;21.80;;;20.10;;
14187;SDS011;7175;51.978;5.330;2023-03-04T10:41:57;21.67;;;19.97;;
14187;SDS011;7175;51.978;5.330;2023-03-04T10:44:27;21.80;;;20.10;;
14187;SDS011;7175;51.978;5.330;2023-03-04T10:46:56;22.87;;;21.07;;
14187;SDS011;7175;51.978;5.330;2023-03-04T10:49:25;21.90;;;20.20;;
14187;SDS011;7175;51.978;5.330;2023-03-04T10:51:59;21.93;;;20.13;;
14187;SDS011;7175;51.978;5.330;2023-03-04T10:54:29;21.30;;;19.57;;
14187;SDS011;7175;51.978;5.330;2023-03-04T10:57:00;21.73;;;20.03;;
14187;SDS011;7175;51.978;5.330;2023-03-04T10:59:31;21.17;;;19.47;;
14187;SDS011;7175;51.978;5.330;2023-03-04T11:02:19;20.50;;;18.90;;
14187;SDS011;7175;51.978;5.330;2023-03-04T11:04:49;19.77;;;18.27;;
14187;SDS011;7175;51.978;5.330;2023-03-04T11:07:21;20.60;;;19.00;;
14187;SDS011;7175;51.978;5.330;2023-03-04T11:09:50;20.87;;;19.27;;
14187;SDS011;7175;51.978;5.330;2023-03-04T11:12:19;20.70;;;19.10;;
14187;SDS011;7175;51.978;5.330;2023-03-04T11:14:49;21.27;;;19.57;;
14187;SDS011;7175;51.978;5.330;2023-03-04T11:17:20;22.30;;;20.50;;
14187;SDS011;7175;51.978;5.330;2023-03-04T11:19:52;20.83;;;19.13;;
14187;SDS011;7175;51.978;5.330;2023-03-04T11:22:24;21.93;;;20.13;;
14187;SDS011;7175;51.978;5.330;2023-03-04T11:24:56;22.07;;;20.27;;
14187;SDS011;7175;51.978;5.330;2023-03-04T11:27:33;21.80;;;20.00;;
14187;SDS011;7175;51.978;5.330;2023-03-04T11:30:15;22.57;;;20.77;;
14187;SDS011;7175;51.978;5.330;2023-03-04T11:32:54;23.17;;;21.27;;
14187;SDS011;7175;51.978;5.330;2023-03-04T11:35:30;22.93;;;21.03;;
14187;SDS011;7175;51.978;5.330;2023-03-04T11:38:08;24.53;;;22.63;;
14187;SDS011;7175;51.978;5.330;2023-03-04T11:40:45;23.30;;;21.40;;
14187;SDS011;7175;51.978;5.330;2023-03-04T11:43:18;23.90;;;22.00;;
14187;SDS011;7175;51.978;5.330;2023-03-04T11:48:56;22.60;;;20.80;;
14187;SDS011;7175;51.978;5.330;2023-03-04T11:51:33;22.70;;;20.90;;
14187;SDS011;7175;51.978;5.330;2023-03-04T11:54:16;21.50;;;19.80;;
14187;SDS011;7175;51.978;5.330;2023-03-04T11:56:53;20.70;;;19.10;;
14187;SDS011;7175;51.978;5.330;2023-03-04T12:02:17;19.80;;;18.20;;
14187;SDS011;7175;51.978;5.330;2023-03-04T12:07:42;20.27;;;18.67;;
14187;SDS011;7175;51.978;5.330;2023-03-04T12:10:27;20.87;;;19.27;;
14187;SDS011;7175;51.978;5.330;2023-03-04T12:13:06;20.40;;;18.80;;
14187;SDS011;7175;51.978;5.330;2023-03-04T12:15:47;20.87;;;19.27;;
14187;SDS011;7175;51.978;5.330;2023-03-04T12:18:26;20.97;;;19.37;;
14187;SDS011;7175;51.978;5.330;2023-03-04T12:21:06;20.50;;;18.90;;
14187;SDS011;7175;51.978;5.330;2023-03-04T12:23:48;20.90;;;19.30;;
14187;SDS011;7175;51.978;5.330;2023-03-04T12:26:40;20.20;;;18.70;;
14187;SDS011;7175;51.978;5.330;2023-03-04T12:29:14;20.47;;;18.87;;
14187;SDS011;7175;51.978;5.330;2023-03-04T12:31:50;20.40;;;18.90;;
14187;SDS011;7175;51.978;5.330;2023-03-04T12:34:32;19.70;;;18.20;;
14187;SDS011;7175;51.978;5.330;2023-03-04T12:37:25;19.17;;;17.67;;
14187;SDS011;7175;51.978;5.330;2023-03-04T12:40:13;19.03;;;17.53;;
14187;SDS011;7175;51.978;5.330;2023-03-04T12:42:59;18.40;;;17.00;;
14187;SDS011;7175;51.978;5.330;2023-03-04T12:45:38;17.73;;;16.43;;
14187;SDS011;7175;51.978;5.330;2023-03-04T12:48:13;17.73;;;16.43;;
14187;SDS011;7175;51.978;5.330;2023-03-04T12:50:51;17.77;;;16.37;;
14187;SDS011;7175;51.978;5.330;2023-03-04T12:53:29;18.37;;;16.93;;
14187;SDS011;7175;51.978;5.330;2023-03-04T12:56:04;18.27;;;16.80;;
14187;SDS011;7175;51.978;5.330;2023-03-04T12:58:37;18.80;;;17.30;;
14187;SDS011;7175;51.978;5.330;2023-03-04T13:01:08;18.87;;;17.37;;
14187;SDS011;7175;51.978;5.330;2023-03-04T13:03:44;18.43;;;17.03;;
14187;SDS011;7175;51.978;5.330;2023-03-04T13:06:28;18.43;;;17.03;;
14187;SDS011;7175;51.978;5.330;2023-03-04T13:09:06;20.07;;;18.57;;
14187;SDS011;7175;51.978;5.330;2023-03-04T13:11:44;19.50;;;18.00;;
14187;SDS011;7175;51.978;5.330;2023-03-04T13:20:16;20.60;;;19.00;;
14187;SDS011;7175;51.978;5.330;2023-03-04T13:22:51;19.80;;;18.30;;
14187;SDS011;7175;51.978;5.330;2023-03-04T13:25:35;19.40;;;18.00;;
14187;SDS011;7175;51.978;5.330;2023-03-04T13:28:17;19.07;;;17.67;;
14187;SDS011;7175;51.978;5.330;2023-03-04T13:33:57;18.97;;;17.60;;
14187;SDS011;7175;51.978;5.330;2023-03-04T13:47:57;17.83;;;16.53;;
14187;SDS011;7175;51.978;5.330;2023-03-04T13:50:33;17.37;;;16.17;;
14187;SDS011;7175;51.978;5.330;2023-03-04T13:53:27;17.47;;;16.17;;
14187;SDS011;7175;51.978;5.330;2023-03-04T13:59:00;17.30;;;16.00;;
14187;SDS011;7175;51.978;5.330;2023-03-04T14:01:47;17.30;;;16.00;;
14187;SDS011;7175;51.978;5.330;2023-03-04T14:04:22;17.87;;;16.57;;
14187;SDS011;7175;51.978;5.330;2023-03-04T14:06:55;17.40;;;16.10;;
14187;SDS011;7175;51.978;5.330;2023-03-04T14:09:25;17.90;;;16.60;;
14187;SDS011;7175;51.978;5.330;2023-03-04T14:11:55;18.10;;;16.80;;
14187;SDS011;7175;51.978;5.330;2023-03-04T14:14:25;17.80;;;16.50;;
14187;SDS011;7175;51.978;5.330;2023-03-04T14:16:56;17.53;;;16.23;;
14187;SDS011;7175;51.978;5.330;2023-03-04T14:19:28;17.53;;;16.23;;
14187;SDS011;7175;51.978;5.330;2023-03-04T14:21:59;17.97;;;16.57;;
14187;SDS011;7175;51.978;5.330;2023-03-04T14:24:27;18.07;;;16.67;;
14187;SDS011;7175;51.978;5.330;2023-03-04T14:27:03;20.30;;;18.80;;
14187;SDS011;7175;51.978;5.330;2023-03-04T14:29:37;17.70;;;16.40;;
14187;SDS011;7175;51.978;5.330;2023-03-04T14:32:06;17.70;;;16.40;;
14187;SDS011;7175;51.978;5.330;2023-03-04T14:34:36;19.63;;;17.47;;
14187;SDS011;7175;51.978;5.330;2023-03-04T14:37:17;17.43;;;16.13;;
14187;SDS011;7175;51.978;5.330;2023-03-04T14:39:47;17.60;;;16.30;;
14187;SDS011;7175;51.978;5.330;2023-03-04T14:42:18;17.80;;;16.40;;
14187;SDS011;7175;51.978;5.330;2023-03-04T14:44:49;17.60;;;16.30;;
14187;SDS011;7175;51.978;5.330;2023-03-04T14:47:18;17.60;;;16.30;;
14187;SDS011;7175;51.978;5.330;2023-03-04T14:49:53;17.67;;;16.37;;
14187;SDS011;7175;51.978;5.330;2023-03-04T14:52:35;17.70;;;16.40;;
14187;SDS011;7175;51.978;5.330;2023-03-04T14:55:14;17.57;;;16.27;;
14187;SDS011;7175;51.978;5.330;2023-03-04T14:57:45;17.73;;;16.43;;
14187;SDS011;7175;51.978;5.330;2023-03-04T15:00:23;19.43;;;17.63;;
14187;SDS011;7175;51.978;5.330;2023-03-04T15:02:54;18.23;;;16.83;;
14187;SDS011;7175;51.978;5.330;2023-03-04T15:05:26;18.10;;;16.80;;
14187;SDS011;7175;51.978;5.330;2023-03-04T15:07:56;17.93;;;16.63;;
14187;SDS011;7175;51.978;5.330;2023-03-04T15:10:27;17.77;;;16.47;;
14187;SDS011;7175;51.978;5.330;2023-03-04T15:12:58;17.73;;;16.43;;
14187;SDS011;7175;51.978;5.330;2023-03-04T15:15:36;18.70;;;17.20;;
14187;SDS011;7175;51.978;5.330;2023-03-04T15:18:17;17.80;;;16.50;;
14187;SDS011;7175;51.978;5.330;2023-03-04T15:20:53;17.87;;;16.57;;
14187;SDS011;7175;51.978;5.330;2023-03-04T15:23:23;18.03;;;16.73;;
14187;SDS011;7175;51.978;5.330;2023-03-04T15:25:52;17.80;;;16.50;;